Barton City, Michigan
Current Conditions -  °F | °C
As of 7:13 PM on Friday 21 Nov 2014 (Local Time) from KOSC Reporting Station
Clear Clear  
Wind Chill: 11°   Ceiling: Unl
Heat Index: 24°   Visibility: 10mi
Dew Point: 15°   Wind: 16mph
Humidity: 67%   Direction: 210°SSW
Pressure: 30.3"   Gusts: 21mph
Location:  44.68°N, 83.61°W
Report Text: KOSC 220013Z AUTO 21014G18KT 10SM CLR M04/M10 A3030 RMK AO2 T10451097
Loading
Personal Weather Stations






























Interactive Weather Map New forecast layout! Learn more

10-Day Weather Forecast

Advertisements
Track Severe Weather on mobile